This is the latest recevied weather packets stored in our database for station/object DG0LFL-13. If no packets are shown the sender has not sent any weather packets the latest 1 day(s).
| Time | Temp. | Humidity | Pressure | Rain* | Wind** | Luminosity | Snow |
|---|---|---|---|---|---|---|---|
| 1778074709 | 15.56° C | 77% | 1010.9 hPa | - | - | - | - |
| 1778074107 | 15.56° C | 77% | 1011 hPa | - | - | - | - |
| 1778073505 | 16.11° C | 77% | 1010.7 hPa | - | - | - | - |
| 1778069893 | 15° C | 78% | 1010.5 hPa | - | - | - | - |
| 1778069291 | 15° C | 78% | 1010.6 hPa | - | - | - | - |
| 1778068087 | 15.56° C | 77% | 1010.8 hPa | - | - | - | - |
| 1778067485 | 15.56° C | 77% | 1010.7 hPa | - | - | - | - |
| 1778066883 | 16.11° C | 77% | 1010.8 hPa | - | - | - | - |
| 1778066281 | 16.67° C | 77% | 1010.9 hPa | - | - | - | - |
| 1778065077 | 16.67° C | 77% | 1010.6 hPa | - | - | - | - |
| 1778062669 | 15.56° C | 78% | 1010.4 hPa | - | - | - | - |
| 1778062067 | 15.56° C | 79% | 1010.4 hPa | - | - | - | - |
| 1778061465 | 15.56° C | 79% | 1010.4 hPa | - | - | - | - |
| 1778060863 | 15.56° C | 79% | 1010.4 hPa | - | - | - | - |
| 1778060261 | 15.56° C | 79% | 1010.2 hPa | - | - | - | - |
| 1778059659 | 15° C | 79% | 1010.2 hPa | - | - | - | - |
| 1778053037 | 13.33° C | 81% | 1009.8 hPa | - | - | - | - |
| 1778052435 | 13.33° C | 81% | 1009.7 hPa | - | - | - | - |
| 1778047017 | 12.78° C | 81% | 1009.3 hPa | - | - | - | - |
| 1778046415 | 12.78° C | 81% | 1009.1 hPa | - | - | - | - |
| 1778045813 | 12.78° C | 81% | 1009.1 hPa | - | - | - | - |
| 1778045211 | 12.78° C | 81% | 1009.1 hPa | - | - | - | - |
| 1778044610 | 12.78° C | 81% | 1009 hPa | - | - | - | - |
| 1778042803 | 12.78° C | 80% | 1009 hPa | - | - | - | - |
| 1778042201 | 12.78° C | 80% | 1009 hPa | - | - | - | - |
* Rain since midnight (hover to see other rain measurements)
** Current wind speed in m/s (hover to see current wind gust speed)